»·PEaware :: N516DM KPSP-KTOA

N516DM :: KPSP-KTOA

FLIGHT INFORMATION

Flight Status: Arrived
Operator: Privately registered:
United States
More flights under this callsign
Pilot: Conner P. (17787)
Aircraft: CESSNA 182 SKYLANE
(C182)
More flights by this aircraft type
Origin: KPSP Palm Springs Intl
United States
Destination: KTOA Zamperini
United States
More flights between these airports :: More routes between these airports
Route: +CATH1 PSP V388 ACINS V283 SLI
File this flight plan on PilotEdge
Remarks:
Altitude:
(Current/Filed)
12,000ft
Speed:
(Current/Filed)
120kts
Departed: 06-Jan-18 11:16 AM
Arrived: 06-Jan-18 12:14 PM
Distance/Time
Traveled:
92nm/0:58
Distance/Time
To Go:
Arrived

Flight Plot

Page will automatically refresh every two minutes.


Map Options




Map Legend


Flown Route
Filed Route
Departure Airport
Arrival Airport
Navaid (VOR, NDB)
Fix

Horizontal Profiles

Position Reports

Time Latitude Longitude Heading Altitude Ground
Speed
06-Jan-18 11:03 33.823757 -116.497204 54 480ft 0kts
06-Jan-18 11:04 33.823759 -116.497201 54 480ft 0kts
06-Jan-18 11:05 33.823761 -116.497198 54 480ft 0kts
06-Jan-18 11:06 33.823763 -116.497195 54 480ft 0kts
06-Jan-18 11:07 33.823764 -116.497192 54 480ft 0kts
06-Jan-18 11:08 33.823766 -116.497190 54 480ft 0kts
06-Jan-18 11:09 33.823768 -116.497187 54 480ft 0kts
06-Jan-18 11:10 33.823769 -116.497184 54 480ft 0kts
06-Jan-18 11:11 33.823771 -116.497181 54 480ft 0kts
06-Jan-18 11:12 33.823772 -116.497179 54 480ft 0kts
06-Jan-18 11:13 33.823774 -116.497176 54 480ft 0kts
06-Jan-18 11:14 33.823776 -116.497173 54 480ft 0kts
06-Jan-18 11:15 33.823777 -116.497170 54 480ft 0kts
06-Jan-18 11:16 33.823727 -116.498257 316 480ft 6kts
06-Jan-18 11:17 33.824726 -116.499437 245 480ft 0kts
06-Jan-18 11:18 33.824723 -116.499443 245 480ft 0kts
06-Jan-18 11:19 33.824720 -116.499453 245 480ft 0kts
06-Jan-18 11:20 33.824716 -116.499462 245 480ft 0kts
06-Jan-18 11:21 33.824668 -116.499558 233 480ft 7kts
06-Jan-18 11:22 33.834841 -116.509499 322 764ft 93kts
06-Jan-18 11:23 33.854278 -116.527436 319 1905ft 88kts
06-Jan-18 11:24 33.871887 -116.547232 319 3484ft 91kts
06-Jan-18 11:25 33.893026 -116.564690 331 5043ft 95kts
06-Jan-18 11:26 33.906373 -116.543421 113 6453ft 104kts
06-Jan-18 11:27 33.895484 -116.508034 112 7074ft 116kts
06-Jan-18 11:28 33.883038 -116.471470 113 8009ft 122kts
06-Jan-18 11:29 33.885452 -116.435316 5 8449ft 127kts
06-Jan-18 11:30 33.897011 -116.463960 272 8907ft 106kts
06-Jan-18 11:31 33.899023 -116.497949 271 9489ft 97kts
06-Jan-18 11:32 33.900097 -116.529619 262 9994ft 98kts
06-Jan-18 11:33 33.905138 -116.568056 284 10015ft 132kts
06-Jan-18 11:34 33.916986 -116.614800 284 10025ft 158kts
06-Jan-18 11:35 33.928661 -116.660916 284 10032ft 130kts
06-Jan-18 11:36 33.940038 -116.705747 284 10013ft 154kts
06-Jan-18 11:37 33.948461 -116.751617 265 10021ft 129kts
06-Jan-18 11:38 33.946914 -116.793792 266 10024ft 125kts
06-Jan-18 11:39 33.945434 -116.835598 266 10043ft 128kts
06-Jan-18 11:40 33.943817 -116.883632 266 10026ft 154kts
06-Jan-18 11:41 33.942104 -116.933296 266 10024ft 147kts
06-Jan-18 11:42 33.940485 -116.978716 266 10022ft 127kts
06-Jan-18 11:43 33.939009 -117.020579 266 9908ft 129kts
06-Jan-18 11:44 33.931467 -117.061675 217 9869ft 138kts
06-Jan-18 11:45 33.904798 -117.081807 220 9997ft 130kts
06-Jan-18 11:46 33.867568 -117.111973 219 9417ft 146kts
06-Jan-18 11:47 33.838255 -117.135680 218 8835ft 159kts
06-Jan-18 11:48 33.795895 -117.169650 217 8027ft 150kts
06-Jan-18 11:49 33.768003 -117.199470 231 8006ft 126kts
06-Jan-18 11:50 33.748700 -117.225101 233 8010ft 122kts
06-Jan-18 11:51 33.724853 -117.256687 233 8012ft 139kts
06-Jan-18 11:52 33.699437 -117.290997 231 7996ft 129kts
06-Jan-18 11:53 33.671335 -117.328341 230 8015ft 136kts
06-Jan-18 11:54 33.650422 -117.355397 231 7991ft 127kts
06-Jan-18 11:55 33.625186 -117.388011 232 8003ft 137kts
06-Jan-18 11:56 33.598265 -117.423245 229 8006ft 153kts
06-Jan-18 11:57 33.571135 -117.458837 229 7995ft 132kts
06-Jan-18 11:58 33.563127 -117.496431 280 7829ft 133kts
06-Jan-18 11:59 33.571976 -117.541573 283 7338ft 143kts
06-Jan-18 12:00 33.581485 -117.589209 281 6835ft 150kts
06-Jan-18 12:01 33.591182 -117.638844 281 6341ft 156kts
06-Jan-18 12:02 33.601214 -117.689289 281 6000ft 154kts
06-Jan-18 12:03 33.610605 -117.737999 282 5993ft 148kts
06-Jan-18 12:04 33.619625 -117.785939 283 6005ft 148kts
06-Jan-18 12:05 33.628444 -117.833752 281 5996ft 147kts
06-Jan-18 12:06 33.637240 -117.881450 281 5471ft 139kts
06-Jan-18 12:07 33.645903 -117.928236 282 5003ft 149kts
06-Jan-18 12:08 33.654748 -117.975243 280 4289ft 130kts
06-Jan-18 12:09 33.662251 -118.017419 281 3337ft 140kts
06-Jan-18 12:10 33.669927 -118.061875 281 2275ft 125kts
06-Jan-18 12:11 33.677091 -118.102438 282 2017ft 131kts
06-Jan-18 12:12 33.684826 -118.144893 282 2000ft 127kts
06-Jan-18 12:13 33.697626 -118.179804 310 2005ft 110kts
06-Jan-18 12:14 33.716410 -118.208028 308 2008ft 108kts
06-Jan-18 12:15 33.735112 -118.235949 306 2010ft 107kts
06-Jan-18 12:16 33.753778 -118.264026 307 1827ft 120kts
06-Jan-18 12:17 33.773590 -118.293677 310 1160ft 91kts
06-Jan-18 12:18 33.787893 -118.315156 307 644ft 77kts
06-Jan-18 12:19 33.800269 -118.333943 307 129ft 63kts
06-Jan-18 12:20 33.805450 -118.341995 286 106ft 15kts
06-Jan-18 12:21 33.806074 -118.344642 285 106ft 13kts
06-Jan-18 12:22 33.806169 -118.346937 308 106ft 10kts

Navigation Log

Ident Type
1. KPSP Airport
2. PSP Navaid
3. DEWAY Fix
4. ACINS Fix
5. HDF Navaid
6. DEJAY Fix
7. KAYOH Fix
8. JOGIT Fix
9. SLI Navaid
10. KTOA Airport